Time;durP1;ratioP1;P1;durP2;ratioP2;P2;SDS_P1;SDS_P2;PMS_P1;PMS_P2;Temp;Humidity;BMP_temperature;BMP_pressure;BME280_temperature;BME280_humidity;BME280_pressure;Samples;Min_cycle;Max_cycle;Signal;HPM_P1;HPM_P2
2021/11/09 00:02:03;;;;;;;26.35;12.15;;;;;;;5.79;100.00;102438.75;5248837;28;20098;-68
2021/11/09 00:04:43;;;;;;;30.85;12.65;;;;;;;5.75;100.00;102427.63;5247884;28;20075;-68
2021/11/09 00:09:59;;;;;;;28.42;11.23;;;;;;;5.74;100.00;102433.75;5247140;28;20043;-69
2021/11/09 00:12:38;;;;;;;32.05;12.18;;;;;;;5.77;100.00;102435.41;5247320;28;20029;-70
2021/11/09 00:15:14;;;;;;;31.40;12.27;;;;;;;5.75;100.00;102432.84;5248666;28;20043;-68
2021/11/09 00:17:48;;;;;;;31.73;12.75;;;;;;;5.71;100.00;102428.66;5244555;28;20112;-71
2021/11/09 00:20:22;;;;;;;29.17;11.48;;;;;;;5.70;100.00;102429.56;5241619;28;20044;-72
2021/11/09 00:22:54;;;;;;;26.08;11.98;;;;;;;5.70;100.00;102432.19;5244251;28;20115;-71
2021/11/09 00:25:26;;;;;;;34.33;12.52;;;;;;;5.73;100.00;102431.22;5241995;28;20441;-71
2021/11/09 00:27:57;;;;;;;26.02;11.55;;;;;;;5.72;100.00;102425.19;5240654;28;20033;-71
2021/11/09 00:30:30;;;;;;;25.33;11.27;;;;;;;5.69;100.00;102424.44;5241532;28;20029;-71
2021/11/09 00:33:01;;;;;;;24.90;12.07;;;;;;;5.69;100.00;102427.91;5243584;28;20061;-71
2021/11/09 00:35:34;;;;;;;34.75;12.77;;;;;;;5.68;100.00;102427.94;5244941;28;20681;-71
2021/11/09 00:38:08;;;;;;;32.17;13.13;;;;;;;5.68;100.00;102439.19;5244087;28;20024;-72
2021/11/09 00:40:42;;;;;;;25.92;11.77;;;;;;;5.67;100.00;102441.84;5241768;28;20022;-71
2021/11/09 00:43:16;;;;;;;25.58;11.43;;;;;;;5.64;100.00;102445.41;5246406;28;20108;-72
2021/11/09 00:45:47;;;;;;;24.08;11.50;;;;;;;5.58;100.00;102443.91;5247092;28;20076;-71
2021/11/09 00:48:19;;;;;;;23.85;11.27;;;;;;;5.50;100.00;102430.34;5242920;28;20029;-72
2021/11/09 00:50:50;;;;;;;27.55;12.27;;;;;;;5.56;100.00;102440.50;5242568;28;20029;-71
2021/11/09 00:53:22;;;;;;;27.77;12.10;;;;;;;5.57;100.00;102436.19;5241660;28;20048;-71
2021/11/09 00:55:54;;;;;;;28.73;12.73;;;;;;;5.55;100.00;102435.38;5243802;28;20025;-72
2021/11/09 00:58:25;;;;;;;29.20;11.50;;;;;;;5.52;100.00;102436.31;5243972;28;20028;-71
2021/11/09 01:00:57;;;;;;;26.17;13.07;;;;;;;5.54;100.00;102442.31;5239945;28;20034;-71
2021/11/09 01:03:29;;;;;;;24.92;13.00;;;;;;;5.52;100.00;102440.69;5241561;28;20040;-73
2021/11/09 01:06:00;;;;;;;23.10;11.90;;;;;;;5.46;100.00;102433.13;5241887;28;20044;-72
2021/11/09 01:08:32;;;;;;;24.05;11.90;;;;;;;5.51;100.00;102447.63;5244071;28;20028;-71
2021/11/09 01:11:03;;;;;;;21.33;11.30;;;;;;;5.52;100.00;102448.47;5242183;28;20106;-69
2021/11/09 01:13:34;;;;;;;25.45;12.20;;;;;;;5.48;100.00;102452.94;5242056;28;20041;-68
2021/11/09 01:16:06;;;;;;;30.77;11.98;;;;;;;5.47;100.00;102453.84;5244184;28;20021;-69
2021/11/09 01:18:44;;;;;;;25.55;11.38;;;;;;;5.50;100.00;102450.31;5242411;28;20558;-68
2021/11/09 01:21:18;;;;;;;28.38;11.65;;;;;;;5.44;100.00;102447.94;5242268;28;20029;-70
2021/11/09 01:23:52;;;;;;;30.60;11.88;;;;;;;5.43;100.00;102448.84;5241341;28;20029;-69
2021/11/09 01:26:24;;;;;;;31.95;13.50;;;;;;;5.42;100.00;102447.13;5240278;28;20071;-68
2021/11/09 01:28:58;;;;;;;26.05;12.23;;;;;;;5.44;100.00;102451.38;5241167;28;20025;-68
2021/11/09 01:31:30;;;;;;;39.95;13.23;;;;;;;5.42;100.00;102447.13;5240810;28;20029;-69
2021/11/09 01:34:03;;;;;;;34.35;13.07;;;;;;;5.46;100.00;102448.72;5241655;28;20028;-68
2021/11/09 01:36:34;;;;;;;31.48;12.50;;;;;;;5.41;100.00;102443.69;5239941;28;20061;-68
2021/11/09 01:39:08;;;;;;;30.73;12.55;;;;;;;5.42;100.00;102431.53;5242496;28;20063;-68
2021/11/09 01:41:39;;;;;;;30.08;12.73;;;;;;;5.37;100.00;102444.69;5240717;28;20449;-69
2021/11/09 01:44:11;;;;;;;30.20;12.85;;;;;;;5.41;100.00;102445.44;5241428;28;20034;-69
2021/11/09 01:46:44;;;;;;;28.80;12.93;;;;;;;5.36;100.00;102443.00;5238701;28;20037;-68
2021/11/09 01:49:15;;;;;;;28.42;12.75;;;;;;;5.37;100.00;102436.91;5240400;28;20025;-68
2021/11/09 01:51:47;;;;;;;32.10;13.60;;;;;;;5.36;100.00;102437.81;5244777;28;20026;-68
2021/11/09 01:54:18;;;;;;;25.73;13.02;;;;;;;5.35;100.00;102428.34;5242038;28;20026;-69
2021/11/09 01:56:50;;;;;;;32.00;12.73;;;;;;;5.36;100.00;102438.66;5242510;28;20037;-68
2021/11/09 01:59:21;;;;;;;26.67;13.38;;;;;;;5.32;100.00;102434.47;5242189;28;20033;-68
2021/11/09 02:01:52;;;;;;;29.60;13.57;;;;;;;5.36;100.00;102437.81;5242886;28;20033;-69
2021/11/09 02:04:24;;;;;;;25.52;13.07;;;;;;;5.33;100.00;102443.13;5241414;28;20030;-69
2021/11/09 02:06:55;;;;;;;30.77;14.10;;;;;;;5.37;100.00;102442.94;5241108;28;20025;-69
2021/11/09 02:09:28;;;;;;;28.23;13.43;;;;;;;5.33;100.00;102448.31;5240913;28;20120;-68
2021/11/09 02:11:59;;;;;;;31.93;14.20;;;;;;;5.35;100.00;102454.31;5241391;28;20025;-69
2021/11/09 02:14:30;;;;;;;40.55;15.07;;;;;;;5.30;100.00;102454.50;5241371;28;20205;-70
2021/11/09 02:17:03;;;;;;;30.35;14.55;;;;;;;5.28;100.00;102448.50;5238568;28;20021;-68
2021/11/09 02:19:36;;;;;;;32.08;13.38;;;;;;;5.33;100.00;102453.53;5242065;28;20033;-68
2021/11/09 02:22:07;;;;;;;31.23;14.35;;;;;;;5.36;100.00;102451.66;5241358;28;20072;-68
2021/11/09 02:24:39;;;;;;;30.17;13.82;;;;;;;5.34;100.00;102452.59;5240621;28;20029;-69
2021/11/09 02:27:10;;;;;;;27.98;13.93;;;;;;;5.33;100.00;102463.91;5241009;28;20058;-68
2021/11/09 02:29:42;;;;;;;36.47;13.57;;;;;;;5.34;100.00;102470.78;5242069;28;20029;-68
2021/11/09 02:32:13;;;;;;;24.38;12.85;;;;;;;5.30;100.00;102464.91;5239450;28;20120;-68
2021/11/09 02:34:44;;;;;;;27.55;13.90;;;;;;;5.30;100.00;102464.03;5238827;28;20037;-68
2021/11/09 02:37:18;;;;;;;26.67;13.85;;;;;;;5.32;100.00;102459.63;5239687;28;20021;-68
2021/11/09 02:39:49;;;;;;;25.92;13.57;;;;;;;5.24;100.00;102453.88;5239409;28;20025;-68
2021/11/09 02:42:21;;;;;;;29.10;13.50;;;;;;;5.25;100.00;102453.81;5240024;28;20052;-68
2021/11/09 02:45:00;;;;;;;26.15;13.45;;;;;;;5.28;100.00;102453.69;5239067;28;20154;-70
2021/11/09 02:47:42;;;;;;;30.92;14.05;;;;;;;5.39;100.00;102449.88;5241609;28;20036;-68
2021/11/09 02:50:15;;;;;;;25.50;13.00;;;;;;;5.25;100.00;102450.34;5243093;28;20021;-70
2021/11/09 02:52:59;;;;;;;28.80;12.98;;;;;;;5.26;100.00;102449.44;5239778;28;20442;-68
2021/11/09 02:55:36;;;;;;;34.85;14.65;;;;;;;5.23;100.00;102452.19;5239813;28;20033;-68
2021/11/09 03:01:01;;;;;;;29.92;15.07;;;;;;;5.20;100.00;102447.09;5241561;28;20044;-69
2021/11/09 03:06:20;;;;;;;33.00;14.27;;;;;;;5.19;100.00;102453.16;5239998;28;20033;-68
2021/11/09 03:11:31;;;;;;;25.13;13.25;;;;;;;5.15;100.00;102447.22;5239611;28;20407;-68
2021/11/09 03:14:03;;;;;;;30.58;13.35;;;;;;;5.17;100.00;102437.66;5237705;28;20179;-67
2021/11/09 03:16:38;;;;;;;32.55;14.43;;;;;;;5.15;100.00;102449.00;5238524;28;20458;-68
2021/11/09 03:47:18;;;;;;;36.60;15.80;;;;;;;5.14;100.00;102450.75;5243758;28;20065;-67
2021/11/09 03:49:51;;;;;;;27.58;14.45;;;;;;;5.13;100.00;102452.50;5243015;28;20406;-68
2021/11/09 03:52:28;;;;;;;30.52;15.10;;;;;;;5.13;100.00;102449.06;5245067;28;20060;-67
2021/11/09 03:55:04;;;;;;;38.28;15.10;;;;;;;5.09;100.00;102448.31;5242695;28;20013;-67
2021/11/09 03:57:42;;;;;;;29.95;15.30;;;;;;;5.07;100.00;102451.88;5243515;28;20040;-68
2021/11/09 04:00:42;;;;;;;31.75;15.85;;;;;;;5.08;100.00;102448.38;5242130;28;20036;-68
2021/11/09 04:05:51;;;;;;;36.78;16.27;;;;;;;5.05;100.00;102451.09;5243067;28;20117;-68
2021/11/09 04:11:13;;;;;;;34.83;16.65;;;;;;;5.04;100.00;102455.44;5246046;28;20301;-68
2021/11/09 04:14:07;;;;;;;37.10;17.52;;;;;;;5.02;100.00;102452.03;5243606;28;20060;-68
2021/11/09 04:16:55;;;;;;;;;;;;;;;5.53;100.00;102455.38;5242134;28;20079;-68
2021/11/09 04:23:23;;;;;;;36.85;18.55;;;;;;;5.07;100.00;102460.50;5245428;28;20409;-68
2021/11/09 04:34:07;;;;;;;38.95;17.75;;;;;;;5.07;100.00;102483.03;5242300;28;20041;-68
2021/11/09 04:39:22;;;;;;;37.47;18.38;;;;;;;5.03;100.00;102477.09;5243369;28;20297;-68
2021/11/09 04:42:38;;;;;;;38.25;18.23;;;;;;;5.04;100.00;102478.81;5243684;28;20049;-68
2021/11/09 04:45:57;;;;;;;36.08;18.25;;;;;;;5.03;100.00;102482.28;5242830;28;20513;-68
2021/11/09 05:01:35;;;;;;;45.72;20.40;;;;;;;4.95;100.00;102479.13;5243163;28;20041;-68
2021/11/09 05:09:58;;;;;;;40.78;18.17;;;;;;;5.00;100.00;102491.94;5244297;28;20044;-67
2021/11/09 05:12:30;;;;;;;39.17;18.50;;;;;;;5.00;100.00;102500.59;5240528;28;20045;-68
2021/11/09 05:15:02;;;;;;;36.55;18.75;;;;;;;4.95;100.00;102497.31;5239431;28;20090;-68
2021/11/09 05:17:34;;;;;;;39.70;18.30;;;;;;;4.94;100.00;102487.81;5240624;28;20045;-68
2021/11/09 05:20:06;;;;;;;36.30;18.27;;;;;;;4.97;100.00;102495.53;5240649;28;20055;-68
2021/11/09 05:22:38;;;;;;;35.90;18.15;;;;;;;4.96;100.00;102493.78;5241558;28;20407;-68
2021/11/09 05:25:09;;;;;;;33.33;17.73;;;;;;;4.96;100.00;102493.78;5243384;28;20446;-68
2021/11/09 05:27:41;;;;;;;38.58;18.00;;;;;;;4.98;100.00;102498.97;5241443;28;20079;-68
2021/11/09 05:30:15;;;;;;;40.90;17.98;;;;;;;4.94;100.00;102495.63;5245608;28;20459;-68
2021/11/09 05:32:47;;;;;;;39.25;18.45;;;;;;;4.91;100.00;102500.06;5241784;28;20430;-68
2021/11/09 05:35:20;;;;;;;40.70;18.33;;;;;;;4.93;100.00;102496.53;5242313;28;20044;-68
2021/11/09 05:37:53;;;;;;;36.13;17.83;;;;;;;4.96;100.00;102499.00;5240729;28;20088;-68
2021/11/09 05:40:32;;;;;;;38.65;18.38;;;;;;;4.95;100.00;102496.47;5241246;28;20025;-67
2021/11/09 05:43:04;;;;;;;35.08;17.30;;;;;;;4.93;100.00;102499.13;5238947;28;20407;-68
2021/11/09 05:45:36;;;;;;;40.20;17.05;;;;;;;4.94;100.00;102503.41;5240664;28;20491;-68
2021/11/09 05:48:07;;;;;;;38.03;18.75;;;;;;;4.92;100.00;102507.78;5242274;28;20028;-68
2021/11/09 05:50:38;;;;;;;31.45;17.45;;;;;;;4.87;100.00;102509.72;5242971;28;20033;-68
2021/11/09 05:53:10;;;;;;;34.05;17.40;;;;;;;4.88;100.00;102503.59;5241153;28;20442;-68
2021/11/09 05:55:41;;;;;;;32.90;17.85;;;;;;;4.86;100.00;102513.22;5241466;28;20087;-67
2021/11/09 05:58:13;;;;;;;39.20;18.23;;;;;;;4.86;100.00;102515.81;5241898;28;20037;-67
2021/11/09 06:00:44;;;;;;;32.40;17.77;;;;;;;4.86;100.00;102515.81;5243165;28;20112;-67
2021/11/09 06:03:19;;;;;;;48.28;17.85;;;;;;;4.85;100.00;102512.38;5241731;28;20036;-68
2021/11/09 06:05:55;;;;;;;37.72;17.73;;;;;;;4.83;100.00;102523.69;5239959;28;20395;-67
2021/11/09 06:08:26;;;;;;;38.03;18.25;;;;;;;4.85;100.00;102527.97;5242208;28;20037;-67
2021/11/09 06:10:58;;;;;;;38.22;17.25;;;;;;;4.85;100.00;102529.72;5242348;28;20079;-67
2021/11/09 06:13:29;;;;;;;35.22;16.83;;;;;;;4.85;100.00;102534.91;5240950;28;20045;-67
2021/11/09 06:16:01;;;;;;;32.13;17.70;;;;;;;4.88;100.00;102526.97;5243879;28;20494;-68
2021/11/09 06:18:32;;;;;;;35.60;16.85;;;;;;;4.88;100.00;102527.81;5238553;28;20521;-67
2021/11/09 06:21:03;;;;;;;40.58;17.48;;;;;;;4.88;100.00;102527.81;5241527;28;20036;-68
2021/11/09 06:23:34;;;;;;;33.88;17.08;;;;;;;4.85;100.00;102534.91;5239225;28;20444;-67
2021/11/09 06:26:06;;;;;;;35.05;16.90;;;;;;;4.86;100.00;102540.03;5242301;28;20870;-67
2021/11/09 06:28:39;;;;;;;33.45;16.40;;;;;;;4.76;100.00;102530.84;5240644;28;20037;-67
2021/11/09 06:31:10;;;;;;;37.17;17.05;;;;;;;4.85;100.00;102538.34;5241215;28;20025;-67
2021/11/09 06:33:42;;;;;;;30.33;15.90;;;;;;;4.83;100.00;102541.88;5239549;28;20044;-68
2021/11/09 06:36:13;;;;;;;33.00;16.17;;;;;;;4.82;100.00;102540.19;5238872;28;20079;-67
2021/11/09 06:38:46;;;;;;;39.33;16.90;;;;;;;4.81;100.00;102539.34;5238859;28;20045;-67
2021/11/09 06:41:17;;;;;;;31.65;16.80;;;;;;;4.79;100.00;102540.28;5240452;28;20064;-68
2021/11/09 06:43:48;;;;;;;36.45;16.88;;;;;;;4.81;100.00;102548.84;5239870;28;20072;-67
2021/11/09 06:46:21;;;;;;;36.55;16.92;;;;;;;4.77;100.00;102540.34;5237675;28;20076;-67
2021/11/09 06:48:52;;;;;;;36.38;16.67;;;;;;;4.79;100.00;102541.13;5239846;28;20091;-67
2021/11/09 06:51:24;;;;;;;34.38;18.17;;;;;;;4.78;100.00;102543.78;5240127;28;20399;-67
2021/11/09 06:53:55;;;;;;;32.70;16.75;;;;;;;4.79;100.00;102548.91;5242745;28;20038;-67
2021/11/09 06:56:27;;;;;;;31.63;16.58;;;;;;;4.80;100.00;102552.38;5242949;28;20103;-67
2021/11/09 06:58:59;;;;;;;37.78;17.08;;;;;;;4.80;100.00;102552.38;5242462;28;20125;-67
2021/11/09 07:01:31;;;;;;;32.07;15.67;;;;;;;4.81;100.00;102554.94;5241606;28;20130;-67
2021/11/09 07:04:03;;;;;;;30.27;16.08;;;;;;;4.78;100.00;102560.22;5242055;28;20124;-67
2021/11/09 07:06:34;;;;;;;32.70;16.48;;;;;;;4.80;100.00;102565.34;5237455;28;20399;-69
2021/11/09 07:09:05;;;;;;;39.45;16.90;;;;;;;4.78;100.00;102560.22;5239629;28;20107;-67
2021/11/09 07:11:37;;;;;;;41.95;17.00;;;;;;;4.76;100.00;102562.00;5238667;28;20797;-67
2021/11/09 07:14:09;;;;;;;42.08;17.50;;;;;;;4.83;100.00;102570.44;5240320;28;20372;-68
2021/11/09 07:16:44;;;;;;;40.23;17.37;;;;;;;4.83;100.00;102571.28;5243195;28;20048;-68
2021/11/09 07:19:16;;;;;;;35.88;16.52;;;;;;;4.86;100.00;102568.59;5244547;28;20124;-68
2021/11/09 07:21:49;;;;;;;36.78;16.98;;;;;;;4.88;100.00;102571.97;5243259;28;20126;-68
2021/11/09 07:24:20;;;;;;;36.03;16.23;;;;;;;4.90;100.00;102578.88;5243377;28;20046;-68
2021/11/09 07:26:51;;;;;;;42.03;16.23;;;;;;;4.92;100.00;102582.25;5237953;28;21215;-68
2021/11/09 07:29:23;;;;;;;34.33;16.05;;;;;;;4.95;100.00;102582.16;5239957;28;20036;-68
2021/11/09 07:31:56;;;;;;;31.35;16.17;;;;;;;4.95;100.00;102588.22;5246640;28;20064;-68
2021/11/09 07:34:27;;;;;;;33.45;16.95;;;;;;;4.98;100.00;102588.13;5243016;28;20471;-68
2021/11/09 07:36:58;;;;;;;35.28;16.27;;;;;;;5.01;100.00;102594.97;5239686;28;20442;-68
2021/11/09 07:39:30;;;;;;;27.63;16.00;;;;;;;4.95;100.00;102583.00;5225590;28;20478;-68
2021/11/09 07:42:01;;;;;;;37.92;16.10;;;;;;;5.01;100.00;102585.41;5241921;28;20025;-68
2021/11/09 07:44:33;;;;;;;30.60;15.98;;;;;;;5.05;100.00;102589.59;5242285;28;20036;-68
2021/11/09 07:47:04;;;;;;;32.83;16.50;;;;;;;5.06;100.00;102585.25;5240396;28;20034;-68
2021/11/09 07:49:37;;;;;;;35.45;15.57;;;;;;;5.09;100.00;102598.16;5238968;28;20113;-68
2021/11/09 07:52:10;;;;;;;31.70;16.25;;;;;;;5.15;100.00;102599.69;5238176;28;20120;-68
2021/11/09 07:54:46;;;;;;;33.30;15.18;;;;;;;5.18;100.00;102602.19;5236683;28;20566;-68
2021/11/09 07:57:17;;;;;;;45.03;17.92;;;;;;;5.17;100.00;102595.28;5237472;28;20029;-69
2021/11/09 07:59:55;;;;;;;40.90;17.92;;;;;;;5.20;100.00;102603.84;5239737;28;20396;-68
2021/11/09 08:02:44;;;;;;;33.15;17.17;;;;;;;5.26;100.00;102610.56;5241031;28;20033;-68
2021/11/09 08:05:16;;;;;;;41.17;17.27;;;;;;;5.31;100.00;102611.25;5238320;28;20079;-68
2021/11/09 08:08:00;;;;;;;34.23;17.77;;;;;;;5.32;100.00;102608.59;5239316;28;20035;-68
2021/11/09 08:10:32;;;;;;;41.80;18.52;;;;;;;5.35;100.00;102607.66;5241994;28;20346;-68
2021/11/09 08:13:03;;;;;;;33.63;17.52;;;;;;;5.36;100.00;102598.94;5243104;28;20029;-68
2021/11/09 08:15:35;;;;;;;41.95;17.13;;;;;;;5.43;100.00;102610.00;5240333;28;20474;-68
2021/11/09 08:18:07;;;;;;;34.65;17.00;;;;;;;5.45;100.00;102603.81;5241648;28;20103;-68
2021/11/09 08:20:39;;;;;;;34.40;17.48;;;;;;;5.51;100.00;102608.81;5240520;28;20024;-68
2021/11/09 08:23:11;;;;;;;41.03;17.20;;;;;;;5.53;100.00;102601.81;5242113;28;20040;-68
2021/11/09 08:25:42;;;;;;;35.78;18.05;;;;;;;5.60;100.00;102603.28;5241161;28;20063;-68
2021/11/09 08:28:14;;;;;;;47.03;19.80;;;;;;;5.64;100.00;102601.41;5241996;28;20391;-68
2021/11/09 08:30:50;;;;;;;37.60;18.13;;;;;;;5.69;100.00;102601.28;5241102;28;20074;-68
2021/11/09 08:33:25;;;;;;;42.50;18.17;;;;;;;5.71;100.00;102604.66;5240806;28;20041;-68
2021/11/09 08:36:00;;;;;;;34.33;16.55;;;;;;;5.77;100.00;102599.22;5242191;28;20048;-68
2021/11/09 08:38:33;;;;;;;35.42;17.75;;;;;;;5.80;100.00;102605.19;5240700;28;20032;-68
2021/11/09 08:41:05;;;;;;;36.92;18.67;;;;;;;5.89;100.00;102601.38;5244992;28;20060;-68
2021/11/09 08:43:39;;;;;;;30.80;17.33;;;;;;;5.92;100.00;102603.03;5241406;28;20092;-68
2021/11/09 08:46:19;;;;;;;41.42;17.25;;;;;;;5.97;100.00;102609.78;5241755;28;20032;-68
2021/11/09 08:48:53;;;;;;;35.50;17.08;;;;;;;6.05;100.00;102612.94;5240314;28;20455;-68
2021/11/09 08:51:25;;;;;;;33.20;17.27;;;;;;;6.10;100.00;102612.78;5240706;28;20093;-68
2021/11/09 08:54:21;;;;;;;34.78;17.08;;;;;;;6.20;100.00;102618.47;5243761;28;20128;-68
2021/11/09 08:57:05;;;;;;;30.88;16.60;;;;;;;6.28;100.00;102619.03;5244789;28;20395;-68
2021/11/09 09:05:16;;;;;;;30.70;15.38;;;;;;;6.53;100.00;102606.75;5239920;28;20517;-68
2021/11/09 09:07:47;;;;;;;27.45;14.93;;;;;;;6.57;100.00;102605.72;5243077;28;20037;-68
2021/11/09 09:10:19;;;;;;;30.98;14.60;;;;;;;6.62;100.00;102602.94;5240589;28;20074;-68
2021/11/09 09:12:50;;;;;;;32.85;15.30;;;;;;;6.71;100.00;102604.34;5241917;28;20593;-70
2021/11/09 09:15:22;;;;;;;36.72;15.68;;;;;;;6.76;100.00;102598.03;5240203;28;20140;-69
2021/11/09 09:17:53;;;;;;;33.88;15.65;;;;;;;6.89;100.00;102598.34;5240925;28;20053;-69
2021/11/09 09:20:28;;;;;;;36.63;15.10;;;;;;;6.93;100.00;102599.94;5241453;28;20106;-68
2021/11/09 09:23:06;;;;;;;32.13;14.57;;;;;;;7.01;100.00;102605.69;5240832;28;21092;-68
2021/11/09 09:56:43;;;;;;;34.45;13.07;;;;;;;8.20;100.00;102599.53;5241211;28;20475;-70
2021/11/09 09:59:14;;;;;;;28.63;11.93;;;;;;;8.32;100.00;102605.13;5237097;28;20112;-68
2021/11/09 10:02:08;;;;;;;32.50;12.55;;;;;;;8.58;100.00;102604.75;5237917;28;20534;-69
2021/11/09 10:04:43;;;;;;;24.30;11.55;;;;;;;8.58;100.00;102606.53;5237904;28;20068;-69
2021/11/09 10:07:28;;;;;;;24.10;11.70;;;;;;;8.78;100.00;102609.00;5236449;28;20029;-68
2021/11/09 10:10:10;;;;;;;28.90;11.48;;;;;;;8.76;100.00;102608.25;5238975;28;20446;-68
2021/11/09 10:12:57;;;;;;;28.38;12.13;;;;;;;8.96;100.00;102607.25;5237749;28;20044;-69
2021/11/09 10:15:32;;;;;;;28.83;11.93;;;;;;;9.04;100.00;102604.25;5237371;28;20094;-69
2021/11/09 10:18:09;;;;;;;24.67;11.55;;;;;;;9.09;100.00;102604.84;5238824;28;20017;-69
2021/11/09 10:20:46;;;;;;;35.33;12.52;;;;;;;9.18;100.00;102605.25;5236620;28;20036;-69
2021/11/09 10:23:21;;;;;;;25.70;11.43;;;;;;;9.31;100.00;102599.41;5236966;28;20048;-69
2021/11/09 10:25:59;;;;;;;28.50;11.70;;;;;;;9.34;100.00;102599.25;5236325;28;20033;-69
2021/11/09 10:28:30;;;;;;;27.35;9.95;;;;;;;9.44;100.00;102597.84;5237739;28;20044;-70
2021/11/09 10:31:05;;;;;;;23.65;10.55;;;;;;;9.53;100.00;102596.50;5239267;28;20691;-68
2021/11/09 10:33:45;;;;;;;29.80;10.93;;;;;;;9.62;100.00;102603.88;5237418;28;20035;-69
2021/11/09 10:36:29;;;;;;;24.00;10.40;;;;;;;9.78;100.00;102598.69;5238865;28;20124;-70
2021/11/09 10:39:21;;;;;;;31.30;11.30;;;;;;;9.99;100.00;102594.91;5239712;28;20410;-69
2021/11/09 10:42:17;;;;;;;24.50;10.70;;;;;;;10.05;100.00;102605.06;5236747;28;20029;-69
2021/11/09 10:44:53;;;;;;;23.05;9.45;;;;;;;10.11;100.00;102603.84;5236720;28;20030;-69
2021/11/09 10:47:28;;;;;;;26.42;10.18;;;;;;;10.09;100.00;102605.72;5237784;28;20036;-71
2021/11/09 10:50:05;;;;;;;26.80;9.65;;;;;;;10.17;100.00;102604.38;5238643;28;20124;-69
2021/11/09 10:52:39;;;;;;;25.50;9.35;;;;;;;10.22;100.00;102596.25;5237514;28;20120;-69
2021/11/09 10:55:41;;;;;;;27.50;10.18;;;;;;;10.56;100.00;102594.41;5237235;28;20056;-69
2021/11/09 10:58:23;;;;;;;21.10;8.30;;;;;;;10.37;100.00;102591.97;5235741;28;20068;-70
2021/11/09 11:06:25;;;;;;;28.73;10.50;;;;;;;10.74;100.00;102582.88;5236393;28;20044;-69
2021/11/09 11:09:02;;;;;;;24.45;9.45;;;;;;;10.73;100.00;102589.06;5237558;28;20036;-69
2021/11/09 11:11:38;;;;;;;31.05;10.13;;;;;;;10.80;100.00;102582.53;5236335;28;20585;-69
2021/11/09 11:14:13;;;;;;;26.75;9.18;;;;;;;10.80;100.00;102577.28;5233651;28;20111;-70
2021/11/09 11:16:46;;;;;;;22.52;10.25;;;;;;;10.80;100.00;102579.91;5233924;28;20025;-69
2021/11/09 11:19:20;;;;;;;23.95;9.32;;;;;;;11.05;100.00;102575.84;5235858;28;20029;-70
2021/11/09 11:21:52;;;;;;;23.30;8.05;;;;;;;10.98;100.00;102571.88;5237134;28;20033;-69
2021/11/09 11:24:24;;;;;;;30.67;8.43;;;;;;;11.03;100.00;102572.47;5235301;28;20025;-70
2021/11/09 11:26:57;;;;;;;23.83;8.23;;;;;;;11.17;100.00;102580.34;5236435;28;20020;-70
2021/11/09 11:29:31;;;;;;;;;;;;;;;11.62;100.00;102583.75;5236371;28;20083;-71
2021/11/09 11:32:06;;;;;;;24.05;8.50;;;;;;;11.32;100.00;102587.28;5235286;28;19920;-70
2021/11/09 11:34:38;;;;;;;24.27;8.25;;;;;;;11.38;100.00;102589.56;5235370;28;20022;-72
2021/11/09 11:37:12;;;;;;;24.67;7.30;;;;;;;11.37;100.00;102587.88;5236769;28;20509;-70
2021/11/09 11:39:43;;;;;;;;;;;;;;;11.92;100.00;102581.88;5236670;28;20037;-70
2021/11/09 11:42:17;;;;;;;23.45;8.18;;;;;;;11.57;100.00;102581.41;5237472;28;19916;-69
2021/11/09 11:44:58;;;;;;;23.30;7.60;;;;;;;11.72;100.00;102577.00;5237215;28;20021;-69
2021/11/09 11:47:29;;;;;;;19.35;8.38;;;;;;;11.62;100.00;102581.97;5241743;28;20171;-71
2021/11/09 11:50:12;;;;;;;20.52;8.07;;;;;;;11.84;100.00;102572.81;5239578;28;20033;-69
2021/11/09 11:52:50;;;;;;;25.43;7.90;;;;;;;11.78;100.00;102574.00;5240941;28;20046;-70
2021/11/09 11:55:27;;;;;;;24.45;8.10;;;;;;;11.83;100.00;102569.34;5241405;28;20029;-69
2021/11/09 11:58:07;;;;;;;20.80;7.57;;;;;;;11.92;100.00;102558.25;5239880;28;20116;-69
2021/11/09 12:01:00;;;;;;;19.10;7.55;;;;;;;12.11;100.00;102563.16;5240254;28;20048;-69
2021/11/09 12:03:34;;;;;;;23.43;8.23;;;;;;;12.06;100.00;102557.38;5247705;28;20041;-70
2021/11/09 12:06:21;;;;;;;17.90;7.20;;;;;;;12.28;100.00;102558.63;5244377;28;20056;-70
2021/11/09 12:08:56;;;;;;;21.27;8.18;;;;;;;12.11;100.00;102549.19;5241635;28;20042;-71
2021/11/09 12:11:29;;;;;;;23.50;7.45;;;;;;;12.09;100.00;102551.09;5245923;28;20403;-70
2021/11/09 12:14:04;;;;;;;19.17;7.10;;;;;;;12.10;100.00;102544.88;5246571;28;20052;-71
2021/11/09 12:16:49;;;;;;;20.90;7.00;;;;;;;12.23;100.00;102548.41;5243914;28;20037;-71
2021/11/09 12:19:35;;;;;;;23.23;7.28;;;;;;;12.23;100.00;102544.94;5241848;28;20037;-69
2021/11/09 12:22:12;;;;;;;17.60;7.00;;;;;;;12.08;100.00;102547.59;5239197;28;20037;-70
2021/11/09 12:24:59;;;;;;;23.10;7.50;;;;;;;12.01;100.00;102534.94;5240989;28;20021;-69
2021/11/09 12:27:53;;;;;;;20.52;6.65;;;;;;;12.29;100.00;102547.16;5232681;28;20068;-71
2021/11/09 12:30:34;;;;;;;15.25;6.07;;;;;;;12.17;100.00;102533.88;5242093;28;20057;-70
2021/11/09 12:33:38;;;;;;;21.70;6.65;;;;;;;12.18;100.00;102527.69;5244985;28;20033;-70
2021/11/09 12:36:11;;;;;;;21.33;6.85;;;;;;;12.23;100.00;102530.00;5235428;28;20033;-69
2021/11/09 12:38:45;;;;;;;20.90;6.05;;;;;;;12.21;100.00;102524.03;5240510;28;20037;-70
2021/11/09 12:41:19;;;;;;;21.60;6.18;;;;;;;12.16;100.00;102520.84;5244078;28;20372;-70
2021/11/09 12:43:53;;;;;;;21.50;5.70;;;;;;;12.16;100.00;102512.97;5243493;28;20149;-71
2021/11/09 12:46:36;;;;;;;20.15;6.30;;;;;;;12.30;100.00;102512.91;5244383;28;20490;-70
2021/11/09 12:49:21;;;;;;;18.85;6.10;;;;;;;12.34;100.00;102505.66;5247431;28;20030;-69
2021/11/09 12:51:55;;;;;;;18.67;6.32;;;;;;;12.20;100.00;102513.59;5245050;28;20021;-70
2021/11/09 12:54:28;;;;;;;17.23;5.63;;;;;;;12.27;100.00;102515.72;5240893;28;20525;-69
2021/11/09 12:57:03;;;;;;;15.73;5.00;;;;;;;12.29;100.00;102513.00;5237833;28;20116;-70
2021/11/09 12:59:50;;;;;;;14.43;5.47;;;;;;;12.26;100.00;102505.31;5238763;28;20049;-69
2021/11/09 13:02:38;;;;;;;18.23;5.80;;;;;;;12.30;100.00;102507.63;5239942;28;20394;-68
2021/11/09 13:05:25;;;;;;;15.48;5.53;;;;;;;12.25;100.00;102514.16;5239657;28;20038;-69
2021/11/09 13:08:14;;;;;;;19.17;5.45;;;;;;;12.49;100.00;102509.06;5238108;28;20028;-71
2021/11/09 13:10:46;;;;;;;15.07;4.65;;;;;;;12.36;100.00;102504.63;5240074;28;20498;-68
2021/11/09 13:13:20;;;;;;;14.60;5.72;;;;;;;12.39;100.00;102504.44;5239624;28;20025;-69
2021/11/09 13:15:52;;;;;;;14.25;5.07;;;;;;;12.38;100.00;102500.09;5239376;28;20410;-68
2021/11/09 13:18:31;;;;;;;13.35;5.30;;;;;;;12.44;100.00;102500.66;5238594;28;20079;-69
2021/11/09 13:21:06;;;;;;;20.67;5.85;;;;;;;12.41;100.00;102505.16;5239393;28;20040;-69
2021/11/09 13:23:37;;;;;;;14.18;5.47;;;;;;;12.45;100.00;102503.16;5241333;28;20479;-70
2021/11/09 13:26:09;;;;;;;15.52;5.47;;;;;;;12.41;100.00;102496.44;5240442;28;20056;-69
2021/11/09 13:28:40;;;;;;;18.00;5.13;;;;;;;12.48;100.00;102497.72;5238127;28;20238;-69
2021/11/09 13:31:13;;;;;;;19.42;5.75;;;;;;;12.45;100.00;102492.66;5237441;28;20960;-68
2021/11/09 13:33:46;;;;;;;18.83;5.40;;;;;;;12.51;100.00;102487.00;5239013;28;20490;-70
2021/11/09 13:36:21;;;;;;;14.85;5.53;;;;;;;12.45;100.00;102487.38;5240937;28;20043;-69
2021/11/09 13:38:55;;;;;;;14.30;5.10;;;;;;;12.51;100.00;102491.41;5242859;28;20036;-70
2021/11/09 13:41:31;;;;;;;16.80;5.78;;;;;;;12.48;100.00;102481.09;5238364;28;20037;-71
2021/11/09 13:44:09;;;;;;;18.10;5.65;;;;;;;12.57;100.00;102491.81;5241071;28;20037;-69
2021/11/09 13:46:42;;;;;;;18.40;6.38;;;;;;;12.53;100.00;102482.47;5240753;28;20183;-69